Time;durP1;ratioP1;P1;durP2;ratioP2;P2;SDS_P1;SDS_P2;PMS_P1;PMS_P2;Temp;Humidity;BMP_temperature;BMP_pressure;BME280_temperature;BME280_humidity;BME280_pressure;Samples;Min_cycle;Max_cycle;Signal;HPM_P1;HPM_P2
2022/07/13 00:01:50;;;;;;;0.90;0.60;;;13.40;99.90;;;;;;4227514;28;20032;-72
2022/07/13 00:03:52;;;;;;;2.50;0.90;;;13.50;99.90;;;;;;4228058;28;20028;-73
2022/07/13 00:05:53;;;;;;;2.10;0.60;;;13.40;99.90;;;;;;4227681;28;20048;-72
2022/07/13 00:07:54;;;;;;;2.83;0.73;;;13.40;99.90;;;;;;4228176;28;20105;-73
2022/07/13 00:09:55;;;;;;;1.73;0.73;;;13.30;99.90;;;;;;4227896;28;20043;-73
2022/07/13 00:11:56;;;;;;;1.43;0.60;;;13.30;99.90;;;;;;4227598;28;20081;-74
2022/07/13 00:13:57;;;;;;;0.87;0.60;;;13.40;99.90;;;;;;4227927;28;20425;-73
2022/07/13 00:15:59;;;;;;;1.33;0.70;;;13.40;99.90;;;;;;4216759;28;20426;-73
2022/07/13 00:18:00;;;;;;;4.50;0.70;;;13.40;99.90;;;;;;4211095;28;20032;-72
2022/07/13 00:20:01;;;;;;;1.33;0.70;;;13.40;99.90;;;;;;4210669;28;20569;-73
2022/07/13 00:22:03;;;;;;;1.50;0.87;;;13.40;99.90;;;;;;4211041;28;20039;-73
2022/07/13 00:24:04;;;;;;;1.47;0.50;;;13.40;99.90;;;;;;4211634;28;20036;-74
2022/07/13 00:26:05;;;;;;;0.47;0.47;;;13.40;99.90;;;;;;4227621;28;20095;-74
2022/07/13 00:28:06;;;;;;;1.40;0.73;;;13.40;99.90;;;;;;4227458;28;20035;-73
2022/07/13 00:30:08;;;;;;;1.60;1.00;;;13.40;99.90;;;;;;4227460;28;20085;-74
2022/07/13 00:32:09;;;;;;;0.43;0.43;;;13.40;99.90;;;;;;4216101;28;20040;-73
2022/07/13 00:34:11;;;;;;;0.80;0.73;;;13.40;99.90;;;;;;4210749;28;20040;-72
2022/07/13 00:36:12;;;;;;;3.23;0.60;;;13.40;99.90;;;;;;4210831;28;20040;-72
2022/07/13 00:38:13;;;;;;;1.57;0.70;;;13.40;99.90;;;;;;4210987;28;20098;-74
2022/07/13 00:40:14;;;;;;;0.57;0.40;;;13.40;99.90;;;;;;4210655;28;20384;-73
2022/07/13 00:42:15;;;;;;;0.93;0.37;;;13.40;99.90;;;;;;4210373;28;20472;-74
2022/07/13 00:44:17;;;;;;;1.83;0.40;;;13.50;99.90;;;;;;4210894;28;20032;-73
2022/07/13 00:46:18;;;;;;;0.50;0.47;;;13.50;99.90;;;;;;4215417;28;20027;-73
2022/07/13 00:48:19;;;;;;;1.37;0.87;;;13.60;99.90;;;;;;4227355;28;20039;-72
2022/07/13 00:50:21;;;;;;;0.70;0.43;;;13.60;99.90;;;;;;4226592;28;20051;-73
2022/07/13 00:52:22;;;;;;;0.70;0.40;;;13.60;99.90;;;;;;4227336;28;20035;-73
2022/07/13 00:54:33;;;;;;;1.20;0.40;;;13.50;99.90;;;;;;4226830;28;20425;-72
2022/07/13 00:56:35;;;;;;;3.10;1.27;;;13.50;99.90;;;;;;4227071;28;20039;-71
2022/07/13 00:58:37;;;;;;;3.63;0.73;;;13.50;99.90;;;;;;4220094;28;20089;-73
2022/07/13 01:00:38;;;;;;;2.73;0.57;;;13.50;99.90;;;;;;4209310;28;20045;-71
2022/07/13 01:02:42;;;;;;;1.30;0.50;;;13.50;99.90;;;;;;4210267;28;20036;-72
2022/07/13 01:04:43;;;;;;;2.10;0.60;;;13.50;99.90;;;;;;4223926;28;20051;-72
2022/07/13 01:06:44;;;;;;;0.90;0.50;;;13.60;99.90;;;;;;4225296;28;20048;-72
2022/07/13 01:08:46;;;;;;;0.80;0.53;;;13.60;99.90;;;;;;4227137;28;20043;-71
2022/07/13 01:10:47;;;;;;;0.97;0.17;;;13.60;99.90;;;;;;4226798;28;20044;-73
2022/07/13 01:12:49;;;;;;;0.43;0.40;;;13.60;99.90;;;;;;4226793;28;20450;-72
2022/07/13 01:14:50;;;;;;;0.53;0.27;;;13.60;99.90;;;;;;4212010;28;20032;-72
2022/07/13 01:16:52;;;;;;;0.73;0.50;;;13.50;99.90;;;;;;4209927;28;20517;-73
2022/07/13 01:18:53;;;;;;;3.70;0.53;;;13.60;99.90;;;;;;4210118;28;20149;-72
2022/07/13 01:20:55;;;;;;;1.57;0.40;;;13.50;99.90;;;;;;4209645;28;20028;-72
2022/07/13 01:23:03;;;;;;;0.80;0.80;;;13.50;99.90;;;;;;4210122;28;20588;-73
2022/07/13 01:25:05;;;;;;;0.30;0.30;;;13.50;99.90;;;;;;4215543;28;20031;-72
2022/07/13 01:27:06;;;;;;;1.67;0.33;;;13.50;99.90;;;;;;4226764;28;20039;-73
2022/07/13 01:29:08;;;;;;;0.50;0.47;;;13.50;99.90;;;;;;4226449;28;20023;-72
2022/07/13 01:31:09;;;;;;;1.50;0.47;;;13.50;99.90;;;;;;4217280;28;20113;-72
2022/07/13 01:33:10;;;;;;;0.80;0.40;;;13.40;99.90;;;;;;4209880;28;20430;-72
2022/07/13 01:35:12;;;;;;;1.23;0.60;;;13.50;99.90;;;;;;4210259;28;20086;-72
2022/07/13 01:37:14;;;;;;;0.63;0.53;;;13.50;99.90;;;;;;4227042;28;20035;-72
2022/07/13 01:39:15;;;;;;;0.50;0.50;;;13.50;99.90;;;;;;4226779;28;20031;-73
2022/07/13 01:41:18;;;;;;;2.27;0.50;;;13.50;99.90;;;;;;4226689;28;20028;-71
2022/07/13 01:43:26;;;;;;;0.73;0.40;;;13.40;99.90;;;;;;4226618;28;20015;-72
2022/07/13 01:45:27;;;;;;;1.40;0.30;;;13.40;99.90;;;;;;4226569;28;20015;-72
2022/07/13 01:47:28;;;;;;;0.93;0.47;;;13.40;99.90;;;;;;4226622;28;20532;-72
2022/07/13 01:49:30;;;;;;;0.73;0.37;;;13.40;99.90;;;;;;4228784;28;20023;-71
2022/07/13 01:51:31;;;;;;;0.43;0.33;;;13.30;99.90;;;;;;4215516;28;20052;-72
2022/07/13 01:53:32;;;;;;;0.80;0.37;;;13.30;99.90;;;;;;4213536;28;20438;-73
2022/07/13 01:55:33;;;;;;;0.50;0.40;;;13.30;99.90;;;;;;4212572;28;20024;-73
2022/07/13 01:57:35;;;;;;;0.50;0.50;;;13.40;99.90;;;;;;4213729;28;20020;-72
2022/07/13 01:59:36;;;;;;;3.70;0.40;;;13.30;99.90;;;;;;4229554;28;20084;-72
2022/07/13 02:01:37;;;;;;;0.60;0.30;;;13.40;99.90;;;;;;4230114;28;20028;-72
2022/07/13 02:03:39;;;;;;;0.87;0.20;;;13.50;99.90;;;;;;4229653;28;20031;-72
2022/07/13 02:05:40;;;;;;;0.40;0.30;;;13.50;99.90;;;;;;4228122;28;20569;-73
2022/07/13 02:07:41;;;;;;;1.30;0.40;;;13.50;99.90;;;;;;4230002;27;20488;-72
2022/07/13 02:09:42;;;;;;;1.03;0.30;;;13.50;99.90;;;;;;4229628;28;20096;-72
2022/07/13 02:11:44;;;;;;;1.63;0.30;;;13.50;99.90;;;;;;4229290;27;20056;-71
2022/07/13 02:13:46;;;;;;;0.50;0.50;;;13.50;99.90;;;;;;4230050;28;20043;-71
2022/07/13 02:15:48;;;;;;;0.90;0.40;;;13.50;99.90;;;;;;4216526;28;20028;-71
2022/07/13 02:17:49;;;;;;;0.30;0.30;;;13.50;99.90;;;;;;4212878;28;20032;-71
2022/07/13 02:19:51;;;;;;;1.23;0.20;;;13.50;99.90;;;;;;4212823;28;20032;-72
2022/07/13 02:21:52;;;;;;;0.73;0.40;;;13.60;99.90;;;;;;4212954;28;20079;-71
2022/07/13 02:23:53;;;;;;;0.70;0.30;;;13.70;99.90;;;;;;4213032;28;20101;-69
2022/07/13 02:25:54;;;;;;;0.97;0.30;;;13.70;99.90;;;;;;4212362;28;20062;-72
2022/07/13 02:27:55;;;;;;;2.33;0.80;;;13.70;99.90;;;;;;4223021;28;20028;-71
2022/07/13 02:29:56;;;;;;;4.23;0.57;;;13.80;99.90;;;;;;4229217;28;20023;-73
2022/07/13 02:31:57;;;;;;;0.40;0.40;;;13.80;99.90;;;;;;4228183;28;20077;-73
2022/07/13 02:33:59;;;;;;;3.97;0.40;;;13.80;99.90;;;;;;4229148;28;20028;-73
2022/07/13 02:36:00;;;;;;;0.50;0.30;;;13.90;99.90;;;;;;4229192;27;20040;-72
2022/07/13 02:38:01;;;;;;;0.73;0.30;;;13.90;99.90;;;;;;4229762;28;20032;-72
2022/07/13 02:40:04;;;;;;;0.53;0.30;;;14.00;99.90;;;;;;4229311;28;20047;-73
2022/07/13 02:42:05;;;;;;;3.13;0.27;;;14.00;99.90;;;;;;4222807;28;20081;-73
2022/07/13 02:44:06;;;;;;;1.07;0.10;;;14.00;99.90;;;;;;4212263;28;20504;-71
2022/07/13 02:46:07;;;;;;;0.60;0.30;;;14.00;99.90;;;;;;4212415;28;20028;-71
2022/07/13 02:48:09;;;;;;;12.53;0.60;;;14.00;99.90;;;;;;4212436;28;20024;-72
2022/07/13 02:50:11;;;;;;;0.50;0.30;;;14.00;99.90;;;;;;4212450;28;20040;-72
2022/07/13 02:52:12;;;;;;;0.50;0.30;;;14.00;99.90;;;;;;4212255;28;20035;-76
2022/07/13 02:54:13;;;;;;;1.87;0.53;;;14.00;99.90;;;;;;4212306;28;20534;-71
2022/07/13 02:56:14;;;;;;;0.70;0.40;;;14.00;99.90;;;;;;4211862;28;20062;-71
2022/07/13 02:58:15;;;;;;;1.40;0.40;;;13.90;99.90;;;;;;4212203;28;20093;-71
2022/07/13 03:00:17;;;;;;;1.67;0.40;;;13.90;99.90;;;;;;4223255;28;20024;-72
2022/07/13 03:02:18;;;;;;;0.40;0.40;;;14.00;99.90;;;;;;4228978;27;20039;-73
2022/07/13 03:04:19;;;;;;;1.10;0.50;;;14.00;99.90;;;;;;4228369;28;20031;-71
2022/07/13 03:06:20;;;;;;;0.63;0.57;;;14.10;99.90;;;;;;4228847;28;20032;-71
2022/07/13 03:08:21;;;;;;;0.60;0.43;;;14.10;99.90;;;;;;4227741;28;20058;-71
2022/07/13 03:10:23;;;;;;;1.03;0.50;;;14.10;99.90;;;;;;4212743;28;20036;-71
2022/07/13 03:12:24;;;;;;;0.33;0.30;;;14.10;99.90;;;;;;4212026;28;20027;-71
2022/07/13 03:14:25;;;;;;;2.60;0.70;;;14.10;99.90;;;;;;4211825;28;20097;-71
2022/07/13 03:16:26;;;;;;;0.37;0.33;;;14.10;99.90;;;;;;4211805;28;20077;-72
2022/07/13 03:18:27;;;;;;;0.70;0.40;;;14.10;99.90;;;;;;4211768;28;20049;-72
2022/07/13 03:20:28;;;;;;;0.50;0.30;;;14.10;99.90;;;;;;4217785;28;20040;-71
2022/07/13 03:22:30;;;;;;;2.13;0.40;;;14.10;99.90;;;;;;4228474;28;20092;-71
2022/07/13 03:24:32;;;;;;;2.00;0.43;;;14.20;99.90;;;;;;4228503;28;20085;-70
2022/07/13 03:26:33;;;;;;;1.20;0.50;;;14.20;99.90;;;;;;4227862;28;20073;-72
2022/07/13 03:28:34;;;;;;;2.38;0.40;;;14.30;99.90;;;;;;4228573;28;20479;-73
2022/07/13 03:30:35;;;;;;;0.73;0.63;;;14.30;99.90;;;;;;4221665;28;20040;-72
2022/07/13 03:32:37;;;;;;;4.20;0.97;;;14.30;99.90;;;;;;4221923;28;20080;-70
2022/07/13 03:34:38;;;;;;;4.83;1.27;;;14.00;99.90;;;;;;4215348;28;20090;-71
2022/07/13 03:36:39;;;;;;;1.70;1.00;;;13.80;99.90;;;;;;4211481;28;20032;-71
2022/07/13 03:38:40;;;;;;;6.40;1.33;;;13.70;99.90;;;;;;4211657;28;20430;-71
2022/07/13 03:40:41;;;;;;;3.00;0.90;;;13.70;99.90;;;;;;4211230;28;20024;-71
2022/07/13 03:42:43;;;;;;;3.67;1.07;;;13.70;99.90;;;;;;4214923;28;20427;-73
2022/07/13 03:44:44;;;;;;;2.30;0.80;;;13.80;99.90;;;;;;4214442;28;20505;-73
2022/07/13 03:46:45;;;;;;;2.67;0.70;;;13.80;99.90;;;;;;4227733;28;20791;-72
2022/07/13 03:48:46;;;;;;;2.37;0.73;;;13.90;99.90;;;;;;4227720;28;20540;-71
2022/07/13 03:50:48;;;;;;;1.13;0.40;;;13.90;99.90;;;;;;4227766;27;20093;-73
2022/07/13 03:52:49;;;;;;;7.27;0.80;;;14.00;99.90;;;;;;4227439;28;20035;-74
2022/07/13 03:54:50;;;;;;;1.27;0.60;;;14.00;99.90;;;;;;4228039;28;20073;-70
2022/07/13 03:56:51;;;;;;;1.77;0.57;;;14.00;99.90;;;;;;4214648;28;20511;-74
2022/07/13 03:58:53;;;;;;;2.93;0.70;;;14.00;99.90;;;;;;4210850;28;20365;-72
2022/07/13 04:00:55;;;;;;;3.07;0.80;;;13.90;99.90;;;;;;4217027;28;20112;-72
2022/07/13 04:02:57;;;;;;;4.13;0.90;;;13.90;99.90;;;;;;4228013;28;20020;-72
2022/07/13 04:04:58;;;;;;;6.33;0.90;;;13.90;99.90;;;;;;4227050;28;20032;-72
2022/07/13 04:06:59;;;;;;;3.50;0.90;;;13.90;99.90;;;;;;4226187;28;20044;-69
2022/07/13 04:09:01;;;;;;;3.00;1.00;;;14.00;99.90;;;;;;4228054;28;20825;-71
2022/07/13 04:11:02;;;;;;;11.90;1.53;;;14.00;99.90;;;;;;4214252;28;20097;-71
2022/07/13 04:13:03;;;;;;;2.90;0.90;;;14.10;99.90;;;;;;4210812;28;20033;-69
2022/07/13 04:15:05;;;;;;;1.67;0.80;;;14.20;99.90;;;;;;4211039;28;20037;-70
2022/07/13 04:17:06;;;;;;;2.80;0.87;;;14.20;99.90;;;;;;4209409;28;20085;-70
2022/07/13 04:19:07;;;;;;;1.67;0.93;;;14.20;99.90;;;;;;4210826;28;20073;-66
2022/07/13 04:21:10;;;;;;;2.60;0.80;;;14.30;99.90;;;;;;4217792;28;20047;-66
2022/07/13 04:23:11;;;;;;;1.30;0.97;;;14.30;99.90;;;;;;4213478;27;20044;-69
2022/07/13 04:25:12;;;;;;;6.00;1.37;;;14.40;99.90;;;;;;4193508;28;20431;-72
2022/07/13 04:27:13;;;;;;;5.00;1.93;;;14.40;99.90;;;;;;4193455;28;20078;-72
2022/07/13 04:29:15;;;;;;;11.70;2.13;;;14.40;99.90;;;;;;4193545;28;20032;-73
2022/07/13 04:31:16;;;;;;;6.27;2.50;;;14.40;99.90;;;;;;4193272;28;20044;-70
2022/07/13 04:33:17;;;;;;;6.53;2.23;;;14.40;99.90;;;;;;4198513;28;20085;-73
2022/07/13 04:35:18;;;;;;;4.10;2.85;;;14.40;99.90;;;;;;4226935;28;20019;-69
2022/07/13 04:37:19;;;;;;;7.47;3.20;;;14.50;99.90;;;;;;4227148;28;20035;-71
2022/07/13 04:39:21;;;;;;;5.45;2.50;;;14.60;99.90;;;;;;4220034;28;20085;-70
2022/07/13 04:41:22;;;;;;;4.63;2.10;;;14.70;99.90;;;;;;4210395;28;20028;-71
2022/07/13 04:43:23;;;;;;;6.70;3.20;;;14.70;99.90;;;;;;4210625;28;20450;-71
2022/07/13 04:45:24;;;;;;;4.88;2.85;;;14.80;99.90;;;;;;4209673;28;20104;-70
2022/07/13 04:47:26;;;;;;;3.33;1.83;;;14.80;99.90;;;;;;4215486;28;20024;-70
2022/07/13 04:49:27;;;;;;;2.38;1.70;;;14.80;99.90;;;;;;4227127;28;20087;-70
2022/07/13 04:51:29;;;;;;;7.75;2.45;;;14.80;99.90;;;;;;4226620;28;20089;-69
2022/07/13 04:53:30;;;;;;;3.05;2.35;;;14.90;99.90;;;;;;4222048;27;20036;-70
2022/07/13 04:55:31;;;;;;;8.23;2.10;;;15.00;99.90;;;;;;4210317;28;20627;-71
2022/07/13 04:57:32;;;;;;;5.05;1.55;;;15.10;99.90;;;;;;4210190;28;20116;-69
2022/07/13 04:59:33;;;;;;;6.88;1.85;;;15.20;99.90;;;;;;4199848;28;20806;-69
2022/07/13 05:01:35;;;;;;;3.50;1.77;;;15.40;99.90;;;;;;4193258;28;20036;-70
2022/07/13 05:03:36;;;;;;;2.45;1.98;;;15.50;99.90;;;;;;4193228;28;20025;-70
2022/07/13 05:05:37;;;;;;;8.27;1.85;;;15.60;99.90;;;;;;4192824;28;20029;-70
2022/07/13 05:07:39;;;;;;;6.82;1.63;;;15.70;99.90;;;;;;4193190;28;20060;-71
2022/07/13 05:09:40;;;;;;;3.03;1.45;;;15.80;99.90;;;;;;4193311;28;20492;-70
2022/07/13 05:11:41;;;;;;;3.22;1.48;;;15.90;99.90;;;;;;4193099;28;20094;-71
2022/07/13 05:13:42;;;;;;;5.82;2.30;;;16.00;99.90;;;;;;4192865;28;20054;-69
2022/07/13 05:15:45;;;;;;;6.47;2.08;;;16.10;99.90;;;;;;4192813;28;20086;-69
2022/07/13 05:17:46;;;;;;;9.23;3.03;;;16.30;99.90;;;;;;4192788;28;20025;-71
2022/07/13 05:19:47;;;;;;;7.60;1.92;;;16.40;99.90;;;;;;4192538;28;20024;-70
2022/07/13 05:21:48;;;;;;;3.10;1.50;;;16.30;99.90;;;;;;4192898;28;20418;-70
2022/07/13 05:23:49;;;;;;;7.53;2.30;;;16.30;99.90;;;;;;4192463;28;20480;-70
2022/07/13 05:25:51;;;;;;;9.25;1.60;;;16.30;99.90;;;;;;4191730;28;20082;-70
2022/07/13 05:27:52;;;;;;;10.52;2.67;;;16.30;99.90;;;;;;4192663;28;20036;-71
2022/07/13 05:29:53;;;;;;;12.70;2.92;;;16.30;99.90;;;;;;4192756;28;20106;-70
2022/07/13 05:31:54;;;;;;;19.98;4.05;;;16.40;99.90;;;;;;4192426;28;20371;-69
2022/07/13 05:33:55;;;;;;;9.50;2.67;;;16.40;99.90;;;;;;4192686;28;20040;-71
2022/07/13 05:35:56;;;;;;;18.17;3.22;;;16.40;99.90;;;;;;4192319;28;20104;-70
2022/07/13 05:37:58;;;;;;;9.27;2.92;;;16.50;99.90;;;;;;4192783;28;20354;-71
2022/07/13 05:39:59;;;;;;;13.32;2.78;;;16.50;99.90;;;;;;4192503;28;20966;-71
2022/07/13 05:42:00;;;;;;;26.98;4.75;;;16.60;99.90;;;;;;4192932;28;20102;-70
2022/07/13 05:44:01;;;;;;;15.20;2.97;;;16.60;99.90;;;;;;4192658;28;20032;-70
2022/07/13 05:46:04;;;;;;;16.02;3.95;;;16.70;99.90;;;;;;4192753;28;20028;-71
2022/07/13 05:48:05;;;;;;;6.65;2.58;;;16.70;99.90;;;;;;4191404;28;20040;-71
2022/07/13 05:50:06;;;;;;;10.55;2.50;;;16.70;99.90;;;;;;4192893;28;20447;-71
2022/07/13 05:52:07;;;;;;;5.50;2.00;;;16.80;99.90;;;;;;4193118;28;20048;-71
2022/07/13 05:54:08;;;;;;;12.70;2.72;;;16.80;99.90;;;;;;4192319;28;20040;-71
2022/07/13 05:56:10;;;;;;;8.90;2.17;;;16.80;99.90;;;;;;4192815;28;20558;-72
2022/07/13 05:58:11;;;;;;;11.82;2.30;;;16.80;99.90;;;;;;4192170;28;20044;-70
2022/07/13 06:00:13;;;;;;;18.23;2.85;;;16.90;99.90;;;;;;4192627;28;20089;-71
2022/07/13 06:02:15;;;;;;;9.95;1.98;;;17.00;99.90;;;;;;4192549;28;20048;-71
2022/07/13 06:04:16;;;;;;;18.83;2.70;;;17.20;99.90;;;;;;4192618;28;20055;-70
2022/07/13 06:06:18;;;;;;;6.47;2.60;;;17.40;99.90;;;;;;4192073;28;20090;-73
2022/07/13 06:08:19;;;;;;;10.77;2.38;;;17.50;99.90;;;;;;4192876;28;20098;-70
2022/07/13 06:10:20;;;;;;;8.52;3.22;;;17.70;99.90;;;;;;4192492;28;20048;-71
2022/07/13 06:12:21;;;;;;;11.88;2.33;;;17.90;99.90;;;;;;4192973;28;20470;-73
2022/07/13 06:14:22;;;;;;;12.10;1.70;;;18.10;99.90;;;;;;4192626;28;20044;-72
2022/07/13 06:16:23;;;;;;;9.38;1.40;;;18.30;99.90;;;;;;4192284;28;20492;-72
2022/07/13 06:18:25;;;;;;;8.98;2.10;;;18.60;99.90;;;;;;4192424;28;20086;-71
2022/07/13 06:20:26;;;;;;;2.55;0.70;;;18.90;99.90;;;;;;4192676;28;20366;-72
2022/07/13 06:22:27;;;;;;;3.03;0.70;;;19.20;99.90;;;;;;4192630;28;20041;-72
2022/07/13 06:24:28;;;;;;;2.47;0.38;;;19.50;99.90;;;;;;4192014;28;20704;-73
2022/07/13 06:26:30;;;;;;;1.52;0.60;;;19.60;99.90;;;;;;4192757;28;20542;-71
2022/07/13 06:28:32;;;;;;;2.40;0.57;;;19.60;99.90;;;;;;4192185;28;20419;-73
2022/07/13 06:30:34;;;;;;;1.20;0.40;;;19.70;99.90;;;;;;4192333;28;20087;-73
2022/07/13 06:32:35;;;;;;;1.70;0.43;;;19.80;99.90;;;;;;4192102;28;20041;-72
2022/07/13 06:34:37;;;;;;;2.17;0.40;;;19.90;99.90;;;;;;4194350;28;20168;-71
2022/07/13 06:36:38;;;;;;;1.17;0.50;;;19.80;99.60;;;;;;4195470;28;20032;-74
2022/07/13 06:38:39;;;;;;;1.20;0.40;;;19.70;99.40;;;;;;4195905;28;20427;-72
2022/07/13 06:40:40;;;;;;;1.70;0.63;;;19.70;99.30;;;;;;4195634;28;20028;-69
2022/07/13 06:42:43;;;;;;;4.55;0.60;;;19.90;99.30;;;;;;4195483;28;20109;-72
2022/07/13 06:44:44;;;;;;;2.75;0.60;;;20.10;98.70;;;;;;4194704;28;20025;-69
2022/07/13 06:46:45;;;;;;;1.27;0.38;;;20.40;98.40;;;;;;4195380;28;20078;-69
2022/07/13 06:48:46;;;;;;;2.30;0.50;;;20.50;98.10;;;;;;4195081;28;20818;-70
2022/07/13 06:50:47;;;;;;;2.45;0.60;;;20.80;98.00;;;;;;4195086;28;20020;-70
2022/07/13 06:52:49;;;;;;;4.00;0.70;;;20.90;97.50;;;;;;4193693;28;20102;-70
2022/07/13 06:54:50;;;;;;;3.22;0.50;;;20.80;97.40;;;;;;4195105;28;20025;-69
2022/07/13 06:56:51;;;;;;;1.15;0.60;;;20.70;97.30;;;;;;4193917;28;20416;-70
2022/07/13 06:58:52;;;;;;;2.75;0.50;;;20.60;97.20;;;;;;4194588;28;20032;-69
2022/07/13 07:00:53;;;;;;;2.35;0.93;;;20.50;97.00;;;;;;4193905;28;20087;-71
2022/07/13 07:02:55;;;;;;;3.20;0.55;;;20.40;96.90;;;;;;4195002;28;20090;-70
2022/07/13 07:04:56;;;;;;;1.60;0.57;;;20.30;97.00;;;;;;4194974;28;20036;-70
2022/07/13 07:06:57;;;;;;;1.55;0.50;;;20.20;96.90;;;;;;4194795;28;20078;-69
2022/07/13 07:08:58;;;;;;;1.88;0.40;;;20.20;96.90;;;;;;4195378;28;20078;-71
2022/07/13 07:10:59;;;;;;;3.10;0.55;;;20.10;96.70;;;;;;4194917;28;20070;-70
2022/07/13 07:13:01;;;;;;;2.10;0.40;;;20.10;96.70;;;;;;4194915;28;20120;-70
2022/07/13 07:15:03;;;;;;;2.80;0.70;;;20.10;96.60;;;;;;4194932;28;20024;-72
2022/07/13 07:17:04;;;;;;;1.95;0.68;;;20.10;96.60;;;;;;4194718;28;20028;-69
2022/07/13 07:19:05;;;;;;;1.65;0.95;;;20.20;96.50;;;;;;4194525;28;20048;-70
2022/07/13 07:21:06;;;;;;;5.78;0.52;;;20.40;96.40;;;;;;4194598;28;20029;-71
2022/07/13 07:23:08;;;;;;;2.55;0.40;;;20.50;96.20;;;;;;4194810;28;20106;-70
2022/07/13 07:25:09;;;;;;;6.15;0.55;;;20.60;96.20;;;;;;4194615;28;20094;-72
2022/07/13 07:27:10;;;;;;;1.88;1.02;;;20.80;96.10;;;;;;4194803;28;20099;-71
2022/07/13 07:29:11;;;;;;;6.05;0.60;;;20.90;96.00;;;;;;4194621;28;20025;-70
2022/07/13 07:31:13;;;;;;;1.67;0.60;;;21.10;95.80;;;;;;4193321;28;20020;-72
2022/07/13 07:33:14;;;;;;;3.10;0.60;;;21.20;95.60;;;;;;4194318;28;20110;-70
2022/07/13 07:35:15;;;;;;;1.92;0.70;;;21.20;95.50;;;;;;4194111;28;20040;-71
2022/07/13 07:37:20;;;;;;;5.57;0.70;;;21.50;95.40;;;;;;4193937;28;20028;-71
2022/07/13 07:39:22;;;;;;;0.52;0.40;;;21.60;95.20;;;;;;4195102;28;20086;-71
2022/07/13 07:41:23;;;;;;;1.50;1.13;;;21.80;95.10;;;;;;4194401;28;20045;-70
2022/07/13 07:43:25;;;;;;;4.63;0.50;;;22.00;94.90;;;;;;4194249;28;20376;-70
2022/07/13 07:45:26;;;;;;;1.02;0.45;;;22.00;94.60;;;;;;4192873;28;20106;-71
2022/07/13 07:47:27;;;;;;;3.50;0.75;;;22.10;94.40;;;;;;4194501;28;20048;-71
2022/07/13 07:49:28;;;;;;;2.13;0.50;;;22.10;94.20;;;;;;4194010;28;20032;-71
2022/07/13 07:51:30;;;;;;;1.35;0.20;;;22.10;93.70;;;;;;4194098;28;20431;-70
2022/07/13 07:53:32;;;;;;;1.60;0.20;;;22.00;93.10;;;;;;4194293;28;20090;-70
2022/07/13 07:55:33;;;;;;;2.25;0.40;;;22.20;92.80;;;;;;4193811;28;20028;-70
2022/07/13 07:57:47;;;;;;;0.22;0.10;;;22.30;92.30;;;;;;4194136;28;20028;-71
2022/07/13 07:59:48;;;;;;;0.57;0.25;;;22.40;91.10;;;;;;4194315;28;20032;-72
2022/07/13 08:01:50;;;;;;;1.55;0.20;;;22.60;91.30;;;;;;4194227;28;20037;-70
2022/07/13 08:03:51;;;;;;;2.75;0.50;;;22.70;91.00;;;;;;4193914;28;20063;-74
2022/07/13 08:05:52;;;;;;;0.52;0.20;;;22.80;90.50;;;;;;4194059;28;20439;-72
2022/07/13 08:07:53;;;;;;;1.98;0.20;;;22.80;90.00;;;;;;4193922;28;20048;-71
2022/07/13 08:09:54;;;;;;;2.25;0.20;;;22.80;89.60;;;;;;4194603;28;20040;-70
2022/07/13 08:11:56;;;;;;;1.00;0.30;;;22.80;89.40;;;;;;4193861;28;20060;-72
2022/07/13 08:13:57;;;;;;;1.75;0.50;;;22.80;89.70;;;;;;4194041;28;20040;-71
2022/07/13 08:15:58;;;;;;;2.15;0.47;;;22.90;89.00;;;;;;4193676;28;20044;-71
2022/07/13 08:17:59;;;;;;;7.38;0.63;;;22.90;88.80;;;;;;4194204;28;20078;-69
2022/07/13 08:20:01;;;;;;;3.72;0.52;;;22.90;88.80;;;;;;4193382;28;20089;-71
2022/07/13 08:22:02;;;;;;;4.55;0.75;;;22.70;88.20;;;;;;4192184;28;20109;-70
2022/07/13 08:24:04;;;;;;;3.83;0.40;;;22.60;88.00;;;;;;4193612;28;20439;-73
2022/07/13 08:26:05;;;;;;;3.03;0.40;;;22.40;88.30;;;;;;4193835;28;20036;-73
2022/07/13 08:28:06;;;;;;;4.32;0.30;;;22.40;88.40;;;;;;4193950;28;20032;-71
2022/07/13 08:30:10;;;;;;;0.73;0.20;;;22.30;88.40;;;;;;4193493;28;20415;-73
2022/07/13 08:32:11;;;;;;;2.38;0.30;;;22.30;88.50;;;;;;4193660;28;20056;-71
2022/07/13 08:38:51;;;;;;;0.50;0.40;;;22.50;87.60;;;;;;4193649;28;20044;-72
2022/07/13 08:40:54;;;;;;;0.47;0.30;;;22.60;87.20;;;;;;4193998;28;20311;-72
2022/07/13 08:42:55;;;;;;;1.60;0.25;;;22.80;87.00;;;;;;4193462;28;20093;-69
2022/07/13 08:44:56;;;;;;;1.60;0.17;;;23.20;86.60;;;;;;4193588;28;20106;-72
2022/07/13 08:46:59;;;;;;;0.50;0.28;;;23.50;84.80;;;;;;4193192;28;20082;-73
2022/07/13 08:49:02;;;;;;;1.30;0.20;;;24.00;84.10;;;;;;4193055;28;20354;-69
2022/07/13 08:51:04;;;;;;;2.85;0.73;;;24.40;83.20;;;;;;4192873;28;20146;-71
2022/07/13 08:53:06;;;;;;;2.55;0.20;;;24.70;82.00;;;;;;4192973;28;20059;-71
2022/07/13 08:55:08;;;;;;;2.33;0.50;;;24.70;81.50;;;;;;4192968;28;20554;-70
2022/07/13 08:57:10;;;;;;;1.02;0.20;;;24.90;81.10;;;;;;4193099;28;20096;-71
2022/07/13 08:59:12;;;;;;;4.65;0.55;;;24.80;80.80;;;;;;4192401;28;20100;-70
2022/07/13 09:01:14;;;;;;;8.23;0.68;;;24.70;80.70;;;;;;4192984;28;20086;-70
2022/07/13 09:03:16;;;;;;;5.22;0.73;;;24.50;80.60;;;;;;4192761;28;20050;-70
2022/07/13 09:05:20;;;;;;;53.20;6.65;;;24.30;80.50;;;;;;4193011;28;20016;-70
2022/07/13 09:07:21;;;;;;;56.10;8.07;;;24.20;80.30;;;;;;4192978;28;20064;-71
2022/07/13 09:09:38;;;;;;;13.20;2.30;;;24.10;80.60;;;;;;4192680;28;20025;-74
2022/07/13 09:11:39;;;;;;;3.97;0.30;;;23.90;80.70;;;;;;4193407;28;20430;-71
2022/07/13 09:13:44;;;;;;;1.23;0.28;;;24.20;81.30;;;;;;4193325;28;20082;-74
2022/07/13 09:15:46;;;;;;;2.88;0.32;;;24.40;80.90;;;;;;4192756;28;20477;-72
2022/07/13 09:17:47;;;;;;;4.53;0.30;;;24.70;80.70;;;;;;4192880;28;20024;-70
2022/07/13 09:19:48;;;;;;;2.25;0.20;;;24.80;80.10;;;;;;4192278;28;20033;-71
2022/07/13 09:21:50;;;;;;;3.38;1.80;;;24.60;78.60;;;;;;4192885;28;20024;-71
2022/07/13 09:23:56;;;;;;;3.05;0.30;;;24.40;79.10;;;;;;4192740;28;20090;-69
2022/07/13 09:25:57;;;;;;;0.98;0.45;;;24.40;78.20;;;;;;4192495;28;20029;-70
2022/07/13 09:28:06;;;;;;;1.20;0.20;;;24.30;78.20;;;;;;4192882;28;20036;-70
2022/07/13 09:30:21;;;;;;;19.08;3.03;;;24.50;77.70;;;;;;4192790;28;20037;-69
2022/07/13 09:32:22;;;;;;;1.95;0.60;;;24.50;76.40;;;;;;4192551;28;20078;-70
2022/07/13 09:34:52;;;;;;;2.63;0.38;;;24.50;77.30;;;;;;4191881;28;20024;-70
2022/07/13 09:37:13;;;;;;;2.38;0.20;;;24.60;75.00;;;;;;4190030;28;20025;-71
2022/07/13 09:39:14;;;;;;;0.32;0.30;;;24.70;74.60;;;;;;4192452;28;20082;-70
2022/07/13 09:41:18;;;;;;;0.88;0.20;;;24.50;75.80;;;;;;4193010;28;20483;-72
2022/07/13 09:48:00;;;;;;;9.60;2.05;;;24.60;76.10;;;;;;4192191;28;20443;-72
2022/07/13 09:50:01;;;;;;;7.85;1.52;;;24.60;75.80;;;;;;4191228;28;20040;-69
2022/07/13 09:52:04;;;;;;;34.22;4.20;;;24.40;76.50;;;;;;4191159;28;20066;-71
2022/07/13 09:54:06;;;;;;;6.95;1.08;;;24.40;76.60;;;;;;4192769;28;20451;-70
2022/07/13 09:56:10;;;;;;;7.80;0.40;;;24.40;76.10;;;;;;4192312;28;20029;-69
2022/07/13 09:58:12;;;;;;;9.38;1.80;;;24.50;76.20;;;;;;4192407;28;20020;-71
2022/07/13 10:00:17;;;;;;;36.80;5.72;;;24.50;76.30;;;;;;4192713;28;20037;-73
2022/07/13 10:02:20;;;;;;;0.40;0.30;;;24.40;75.80;;;;;;4192997;28;20088;-72
2022/07/13 10:04:22;;;;;;;0.75;0.20;;;24.50;75.60;;;;;;4192306;28;20029;-72
2022/07/13 10:06:25;;;;;;;1.75;0.75;;;24.50;75.30;;;;;;4192270;28;20025;-71
2022/07/13 10:08:26;;;;;;;7.97;1.48;;;24.60;75.50;;;;;;4191719;28;20458;-71
2022/07/13 10:10:27;;;;;;;2.30;0.30;;;24.80;75.40;;;;;;4196175;28;20094;-70
2022/07/13 10:12:29;;;;;;;1.30;0.38;;;24.80;74.70;;;;;;4195675;28;20105;-71
2022/07/13 10:14:30;;;;;;;1.48;0.17;;;25.00;74.60;;;;;;4195618;28;20058;-72
2022/07/13 10:16:32;;;;;;;0.82;0.20;;;25.00;73.50;;;;;;4195553;28;20098;-70
2022/07/13 10:18:41;;;;;;;3.03;0.28;;;25.10;72.80;;;;;;4195506;28;20029;-72
2022/07/13 10:20:49;;;;;;;20.23;2.15;;;25.20;71.60;;;;;;4195308;28;20449;-72
2022/07/13 10:22:51;;;;;;;7.68;0.85;;;25.20;69.70;;;;;;4194304;28;20032;-73
2022/07/13 10:24:53;;;;;;;0.60;0.35;;;25.00;70.30;;;;;;4195859;28;20037;-72
2022/07/13 10:27:27;;;;;;;1.27;0.10;;;25.00;70.40;;;;;;4195844;28;20097;-71
2022/07/13 10:29:31;;;;;;;21.23;3.90;;;25.10;69.90;;;;;;4195563;28;20048;-71
2022/07/13 10:31:33;;;;;;;2.78;1.05;;;24.70;70.90;;;;;;4195446;28;20029;-71
2022/07/13 10:33:34;;;;;;;4.80;1.23;;;24.60;71.20;;;;;;4195499;28;20048;-73
2022/07/13 10:35:50;;;;;;;3.20;0.85;;;24.40;70.10;;;;;;4195381;28;20017;-72
2022/07/13 10:37:58;;;;;;;8.05;0.40;;;24.20;70.60;;;;;;4195709;28;20062;-70
2022/07/13 10:40:13;;;;;;;2.22;0.30;;;24.10;72.10;;;;;;4195539;28;20508;-71
2022/07/13 10:42:14;;;;;;;6.78;0.88;;;24.10;72.50;;;;;;4195741;28;20032;-73
2022/07/13 10:44:36;;;;;;;37.53;4.22;;;24.00;72.80;;;;;;4194141;28;20085;-71